Time;durP1;ratioP1;P1;durP2;ratioP2;P2;SDS_P1;SDS_P2;PMS_P1;PMS_P2;Temp;Humidity;BMP_temperature;BMP_pressure;BME280_temperature;BME280_humidity;BME280_pressure;Samples;Min_cycle;Max_cycle;Signal;HPM_P1;HPM_P2
2023/12/05 00:00:38;;;;;;;7.78;1.98;;;5.30;99.90;;;4.34;100.00;100474.00;4154245;28;20045;-87
2023/12/05 00:02:39;;;;;;;8.75;1.85;;;5.30;99.90;;;4.26;100.00;100481.63;4154116;28;20026;-85
2023/12/05 00:04:42;;;;;;;8.18;2.53;;;5.20;99.90;;;4.21;100.00;100481.13;4152670;28;20033;-84
2023/12/05 00:06:43;;;;;;;5.28;1.50;;;5.10;99.90;;;4.16;100.00;100483.28;4154148;28;20501;-84
2023/12/05 00:08:43;;;;;;;12.38;2.90;;;5.10;99.90;;;4.17;100.00;100487.56;4154189;28;20030;-85
2023/12/05 00:10:44;;;;;;;6.13;2.35;;;5.10;99.90;;;4.14;100.00;100485.22;4153754;28;20026;-85
2023/12/05 00:12:45;;;;;;;12.98;2.90;;;5.10;99.90;;;4.23;100.00;100491.47;4152969;28;20030;-85
2023/12/05 00:14:46;;;;;;;8.13;2.22;;;5.10;99.90;;;4.38;100.00;100485.88;4154423;28;20084;-87
2023/12/05 00:16:47;;;;;;;14.02;2.58;;;5.10;99.90;;;4.33;100.00;100489.81;4153581;28;20104;-88
2023/12/05 00:18:50;;;;;;;10.30;2.85;;;5.10;99.90;;;4.27;100.00;100487.69;4152716;28;20030;-86
2023/12/05 00:20:51;;;;;;;11.05;2.60;;;5.10;99.90;;;4.13;100.00;100482.69;4165935;28;20120;-85
2023/12/05 00:22:52;;;;;;;12.57;2.45;;;5.10;99.90;;;4.19;100.00;100488.28;4153861;28;20037;-87
2023/12/05 00:24:54;;;;;;;8.02;3.05;;;5.10;99.90;;;4.28;100.00;100494.53;4152578;28;20025;-86
2023/12/05 00:26:54;;;;;;;7.18;2.17;;;5.10;99.90;;;4.33;100.00;100484.59;4153804;28;20129;-87
2023/12/05 00:28:55;;;;;;;10.07;2.30;;;5.20;99.90;;;4.30;100.00;100493.47;4136090;28;20026;-86
2023/12/05 00:30:56;;;;;;;8.07;2.67;;;5.20;99.90;;;4.25;100.00;100495.63;4154022;28;20075;-88
2023/12/05 00:32:57;;;;;;;8.40;2.00;;;5.10;99.90;;;4.24;100.00;100493.94;4153655;28;20041;-86
2023/12/05 00:34:58;;;;;;;12.27;2.25;;;5.10;99.90;;;4.29;100.00;100486.59;4153723;28;20025;-87
2023/12/05 00:36:58;;;;;;;12.30;3.38;;;5.10;99.90;;;4.43;100.00;100494.16;4153502;28;20030;-86
2023/12/05 00:38:59;;;;;;;5.40;1.73;;;5.20;99.90;;;4.48;100.00;100496.38;4153680;28;20034;-87
2023/12/05 00:41:00;;;;;;;7.57;2.00;;;5.30;99.90;;;4.48;100.00;100499.84;4159057;28;20034;-87
2023/12/05 00:43:01;;;;;;;9.32;1.92;;;5.30;99.90;;;4.56;100.00;100503.63;4152372;28;20025;-86
2023/12/05 00:45:03;;;;;;;11.05;2.08;;;5.30;99.90;;;4.50;100.00;100498.88;4153291;28;20033;-86
2023/12/05 00:47:05;;;;;;;4.00;1.83;;;5.30;99.90;;;4.48;100.00;100499.00;4153546;28;20489;-87
2023/12/05 00:49:06;;;;;;;10.20;1.98;;;5.30;99.90;;;4.43;100.00;100498.53;4152321;28;20099;-85
2023/12/05 00:51:07;;;;;;;8.27;2.08;;;5.30;99.90;;;4.36;100.00;100487.75;4157910;28;20018;-84
2023/12/05 00:53:08;;;;;;;8.77;2.00;;;5.30;99.90;;;4.31;100.00;100494.31;4152462;28;20116;-87
2023/12/05 00:55:09;;;;;;;10.82;1.75;;;5.20;99.90;;;4.19;100.00;100500.50;4152045;28;20030;-85
2023/12/05 00:57:10;;;;;;;8.43;1.65;;;5.10;99.90;;;4.24;100.00;100499.16;4153309;28;20083;-85
2023/12/05 00:59:11;;;;;;;9.68;1.65;;;5.10;99.90;;;4.18;100.00;100499.66;4155693;28;20488;-85
2023/12/05 01:01:12;;;;;;;7.25;2.17;;;5.10;99.90;;;4.20;100.00;100521.28;4155304;28;20100;-85
2023/12/05 01:03:13;;;;;;;4.68;1.50;;;5.00;99.90;;;4.13;100.00;100512.25;4153390;28;20030;-86
2023/12/05 01:05:14;;;;;;;4.93;1.58;;;5.00;99.90;;;4.15;100.00;100514.75;4153170;28;20022;-85
2023/12/05 01:07:15;;;;;;;10.85;1.92;;;5.00;99.90;;;4.14;100.00;100498.25;4153138;28;20029;-87
2023/12/05 01:09:16;;;;;;;4.60;1.58;;;5.00;99.90;;;4.19;100.00;100506.53;4153069;28;20030;-85
2023/12/05 01:11:17;;;;;;;7.53;2.08;;;5.10;99.90;;;4.10;100.00;100507.28;4152796;28;20026;-87
2023/12/05 01:13:18;;;;;;;5.82;1.52;;;5.00;99.90;;;4.21;100.00;100496.81;4153181;28;20461;-86
2023/12/05 01:15:18;;;;;;;6.13;1.98;;;5.10;99.90;;;4.34;100.00;100512.34;4151400;28;20045;-86
2023/12/05 01:17:19;;;;;;;11.88;1.92;;;5.10;99.90;;;4.28;100.00;100507.59;4152565;28;20489;-84
2023/12/05 01:19:20;;;;;;;6.82;1.35;;;5.10;99.90;;;4.36;100.00;100519.09;4152890;28;20140;-86
2023/12/05 01:21:21;;;;;;;10.27;2.17;;;5.20;99.90;;;4.30;100.00;100516.97;4163881;28;20025;-86
2023/12/05 01:23:22;;;;;;;10.13;1.88;;;5.20;99.90;;;4.29;100.00;100517.94;4153020;28;20052;-86
2023/12/05 01:25:23;;;;;;;9.48;2.20;;;5.20;99.90;;;4.29;100.00;100509.25;4159397;28;20409;-86
2023/12/05 01:27:23;;;;;;;4.32;1.60;;;5.20;99.90;;;4.28;100.00;100516.25;4154636;28;20025;-85
2023/12/05 01:29:24;;;;;;;8.73;2.92;;;5.10;99.90;;;4.29;100.00;100512.72;4152968;28;20030;-87
2023/12/05 01:31:26;;;;;;;5.15;1.55;;;5.20;99.90;;;4.34;100.00;100513.16;4161728;28;20030;-86
2023/12/05 01:33:26;;;;;;;7.95;2.13;;;5.20;99.90;;;4.30;100.00;100514.34;4152693;28;20045;-85
2023/12/05 01:35:27;;;;;;;3.85;1.55;;;5.20;99.90;;;4.51;100.00;100516.22;4151444;28;20529;-87
2023/12/05 01:37:28;;;;;;;7.85;1.50;;;5.30;99.90;;;4.41;100.00;100516.97;4151562;28;20509;-87
2023/12/05 01:39:29;;;;;;;5.00;1.65;;;5.30;99.90;;;4.30;100.00;100511.75;4153210;28;20049;-87
2023/12/05 01:41:30;;;;;;;9.00;1.60;;;5.20;99.90;;;4.28;100.00;100524.09;4156716;28;20060;-86
2023/12/05 01:43:31;;;;;;;7.03;1.77;;;5.20;99.90;;;4.28;100.00;100518.88;4183997;28;20577;-85
2023/12/05 01:45:31;;;;;;;8.93;1.88;;;5.10;99.90;;;4.37;100.00;100520.75;4151532;28;20036;-87
2023/12/05 01:47:42;;;;;;;4.55;1.92;;;5.20;99.90;;;4.44;100.00;100519.34;4151429;28;20025;-87
2023/12/05 01:49:46;;;;;;;5.47;1.90;;;5.20;99.90;;;4.46;100.00;100514.81;4153693;28;20030;-85
2023/12/05 01:51:47;;;;;;;6.30;1.20;;;5.30;99.90;;;4.50;100.00;100531.06;4136624;28;20414;-86
2023/12/05 01:53:48;;;;;;;6.03;1.58;;;5.30;99.90;;;4.61;100.00;100523.19;4152623;28;20445;-86
2023/12/05 01:55:51;;;;;;;5.03;1.80;;;5.40;99.90;;;4.50;100.00;100525.00;4151278;28;20064;-87
2023/12/05 01:57:52;;;;;;;11.93;1.98;;;5.30;99.90;;;4.45;100.00;100528.81;4152407;28;20033;-85
2023/12/05 01:59:54;;;;;;;4.65;1.52;;;5.30;99.90;;;4.53;100.00;100533.44;4152538;28;20400;-87
2023/12/05 02:01:55;;;;;;;5.93;1.80;;;5.30;99.90;;;4.48;100.00;100527.72;4183952;28;20033;-88
2023/12/05 02:03:58;;;;;;;5.13;1.60;;;5.30;99.90;;;4.41;100.00;100530.03;4152476;28;20465;-86
2023/12/05 02:05:59;;;;;;;5.63;1.77;;;5.30;99.90;;;4.43;100.00;100524.66;4163243;28;20017;-86
2023/12/05 02:08:00;;;;;;;4.68;1.73;;;5.30;99.90;;;4.42;100.00;100539.50;4151857;28;20557;-86
2023/12/05 02:10:02;;;;;;;8.75;2.53;;;5.20;99.90;;;4.30;100.00;100543.06;4156665;28;20033;-85
2023/12/05 02:12:04;;;;;;;3.80;1.73;;;5.20;99.90;;;4.27;100.00;100553.75;4158654;28;20057;-86
2023/12/05 02:14:07;;;;;;;7.68;2.47;;;5.20;99.90;;;4.30;100.00;100555.31;4152401;28;20030;-86
2023/12/05 02:16:23;;;;;;;4.97;1.60;;;5.20;99.90;;;4.23;100.00;100547.13;4151979;28;20045;-88
2023/12/05 02:18:31;;;;;;;3.55;1.45;;;5.10;99.90;;;4.35;100.00;100558.38;4135530;28;20026;-86
2023/12/05 02:21:15;;;;;;;9.60;1.77;;;5.10;99.90;;;4.32;100.00;100563.84;4172289;28;20028;-85
2023/12/05 02:23:51;;;;;;;9.80;1.63;;;5.20;99.90;;;4.29;100.00;100564.94;4143792;28;20041;-87
2023/12/05 02:26:13;;;;;;;5.57;1.10;;;5.20;99.90;;;4.32;100.00;100558.63;4144633;28;20042;-86
2023/12/05 02:28:15;;;;;;;6.28;1.40;;;5.20;99.90;;;4.24;100.00;100571.47;4152227;28;20412;-86
2023/12/05 02:30:17;;;;;;;8.75;1.77;;;5.20;99.90;;;4.36;100.00;100566.09;4160568;28;20036;-86
2023/12/05 02:32:18;;;;;;;5.70;1.52;;;5.20;99.90;;;4.34;100.00;100572.38;4154954;28;20018;-85
2023/12/05 02:34:19;;;;;;;6.78;1.92;;;5.20;99.90;;;4.27;100.00;100558.19;4187051;28;20032;-85
2023/12/05 02:36:32;;;;;;;5.45;1.27;;;5.20;99.90;;;4.24;100.00;100577.50;4154377;28;20029;-84
2023/12/05 02:38:43;;;;;;;6.28;1.73;;;5.10;99.90;;;4.22;100.00;100576.78;4154198;28;20096;-86
2023/12/05 02:41:04;;;;;;;6.38;2.00;;;5.10;99.90;;;4.24;100.00;100574.06;4155329;28;20029;-85
2023/12/05 02:43:12;;;;;;;5.15;1.55;;;5.10;99.90;;;4.35;100.00;100574.06;4154215;28;20041;-87
2023/12/05 02:45:24;;;;;;;11.02;2.38;;;5.10;99.90;;;4.35;100.00;100577.50;4170506;28;20040;-86
2023/12/05 02:47:29;;;;;;;5.05;1.40;;;5.20;99.90;;;4.28;100.00;100583.31;4154402;28;20029;-87
2023/12/05 02:49:30;;;;;;;9.82;2.25;;;5.10;99.90;;;4.20;100.00;100570.88;4154161;28;20034;-84
2023/12/05 02:51:31;;;;;;;5.43;1.75;;;5.10;99.90;;;4.14;100.00;100576.56;4154357;28;20030;-86
2023/12/05 02:53:32;;;;;;;9.35;2.78;;;5.10;99.90;;;4.15;100.00;100586.03;4154111;28;20026;-86
2023/12/05 02:55:33;;;;;;;5.82;1.63;;;5.10;99.90;;;4.09;100.00;100585.72;4155095;28;20029;-87
2023/12/05 02:57:34;;;;;;;7.90;1.58;;;5.00;99.90;;;4.06;100.00;100596.38;4154005;28;20077;-86
2023/12/05 02:59:35;;;;;;;7.28;1.33;;;5.00;99.90;;;4.07;100.00;100588.41;4153888;28;20033;-86
2023/12/05 03:01:42;;;;;;;6.93;1.67;;;4.90;99.90;;;4.16;100.00;100586.88;4186626;28;20032;-87
2023/12/05 03:03:43;;;;;;;6.30;1.88;;;5.00;99.90;;;4.28;100.00;100597.19;4154005;28;20398;-85
2023/12/05 03:05:44;;;;;;;6.30;1.45;;;5.10;99.90;;;4.30;100.00;100597.09;4155079;28;20026;-87
2023/12/05 03:07:44;;;;;;;7.15;1.65;;;5.10;99.90;;;4.18;100.00;100585.00;4155027;28;20074;-85
2023/12/05 03:09:46;;;;;;;8.20;2.22;;;5.10;99.90;;;4.30;100.00;100590.06;4154842;28;20033;-86
2023/12/05 03:11:47;;;;;;;6.43;1.60;;;5.10;99.90;;;4.27;100.00;100592.13;4155216;28;20053;-86
2023/12/05 03:13:48;;;;;;;7.03;2.10;;;5.10;99.90;;;4.27;100.00;100587.69;4162006;28;20021;-86
2023/12/05 03:15:48;;;;;;;8.70;1.55;;;5.10;99.90;;;4.18;100.00;100585.00;4157945;28;20054;-87
2023/12/05 03:17:49;;;;;;;7.07;2.05;;;5.10;99.90;;;4.18;100.00;100580.56;4153689;28;20038;-87
2023/12/05 03:19:50;;;;;;;8.48;2.35;;;5.00;99.90;;;4.17;100.00;100583.31;4154861;28;20037;-86
2023/12/05 03:21:51;;;;;;;7.28;2.13;;;5.00;99.90;;;4.14;100.00;100586.16;4186329;28;20034;-87
2023/12/05 03:23:52;;;;;;;8.63;1.20;;;5.00;99.90;;;4.13;100.00;100580.13;4154720;28;20026;-86
2023/12/05 03:25:53;;;;;;;6.10;1.35;;;5.00;99.90;;;4.11;100.00;100584.63;4154385;28;20026;-85
2023/12/05 03:27:53;;;;;;;8.40;1.50;;;5.00;99.90;;;4.24;100.00;100581.91;4153613;28;20036;-87
2023/12/05 03:29:54;;;;;;;5.07;1.83;;;5.00;99.90;;;4.21;100.00;100587.38;4153504;28;20483;-87
2023/12/05 03:31:55;;;;;;;6.72;2.00;;;5.10;99.90;;;4.26;100.00;100580.84;4186183;28;20401;-86
2023/12/05 03:33:56;;;;;;;7.05;1.55;;;5.10;99.90;;;4.33;100.00;100589.03;4154416;28;20497;-87
2023/12/05 03:35:57;;;;;;;8.07;2.05;;;5.10;99.90;;;4.34;100.00;100588.88;4154635;28;20081;-86
2023/12/05 03:37:57;;;;;;;10.52;1.77;;;5.10;99.90;;;4.40;100.00;100587.56;4153385;28;20083;-86
2023/12/05 03:39:58;;;;;;;5.20;1.15;;;5.20;99.90;;;4.33;100.00;100592.44;4153736;28;20029;-85
2023/12/05 03:41:59;;;;;;;7.40;1.40;;;5.20;99.90;;;4.30;100.00;100594.50;4153109;28;20033;-84
2023/12/05 03:44:00;;;;;;;12.75;2.17;;;5.20;99.90;;;4.38;100.00;100595.53;4153358;28;20026;-88
2023/12/05 03:46:01;;;;;;;6.20;1.45;;;5.20;99.90;;;4.45;100.00;100591.47;4186021;28;20531;-87
2023/12/05 03:48:02;;;;;;;8.50;1.40;;;5.20;99.90;;;4.46;100.00;100598.38;4153214;28;20061;-87
2023/12/05 03:50:03;;;;;;;11.35;1.58;;;5.20;99.90;;;4.52;100.00;100588.38;4154168;28;20080;-86
2023/12/05 03:52:05;;;;;;;6.93;1.83;;;5.30;99.90;;;4.51;100.00;100602.41;4160517;28;20025;-85
2023/12/05 03:54:07;;;;;;;9.38;1.73;;;5.30;99.90;;;4.47;100.00;100615.72;4154132;28;20041;-86
2023/12/05 03:56:08;;;;;;;6.90;1.50;;;5.30;99.90;;;4.58;100.00;100606.19;4154235;28;20485;-86
2023/12/05 03:58:09;;;;;;;6.40;1.75;;;5.30;99.90;;;4.45;100.00;100595.88;4154066;28;20509;-86
2023/12/05 04:00:11;;;;;;;7.22;1.63;;;5.30;99.90;;;4.41;100.00;100590.09;4153050;28;20034;-87
2023/12/05 04:02:12;;;;;;;7.57;1.38;;;5.30;99.90;;;4.42;100.00;100606.59;4185711;28;20591;-86
2023/12/05 04:04:13;;;;;;;3.72;1.58;;;5.20;99.90;;;4.47;100.00;100592.22;4152969;28;20068;-85
2023/12/05 04:06:24;;;;;;;5.30;1.52;;;5.30;99.90;;;4.48;100.00;100601.69;4153959;28;20041;-88
2023/12/05 04:08:24;;;;;;;3.83;1.08;;;5.30;99.90;;;4.52;100.00;100591.84;4152873;28;20022;-84
2023/12/05 04:10:25;;;;;;;4.70;1.30;;;5.30;99.90;;;4.41;100.00;100590.09;4153840;28;20029;-86
2023/12/05 04:12:26;;;;;;;7.38;1.25;;;5.30;99.90;;;4.39;100.00;100602.41;4152753;28;20026;-85
2023/12/05 04:14:27;;;;;;;6.78;1.73;;;5.30;99.90;;;4.38;100.00;100598.16;4152621;28;20044;-85
2023/12/05 04:16:28;;;;;;;7.68;2.03;;;5.20;99.90;;;4.34;100.00;100603.72;4153625;28;20046;-85
2023/12/05 04:18:29;;;;;;;9.23;1.58;;;5.20;99.90;;;4.39;100.00;100604.22;4153024;28;20051;-86
2023/12/05 04:20:29;;;;;;;8.57;1.30;;;5.20;99.90;;;4.47;100.00;100599.22;4153857;28;20052;-87
2023/12/05 04:22:30;;;;;;;8.70;1.75;;;5.20;99.90;;;4.53;100.00;100613.56;4152473;28;20033;-85
2023/12/05 04:24:31;;;;;;;5.22;1.48;;;5.30;99.90;;;4.51;100.00;100610.25;4153893;28;20028;-85
2023/12/05 04:26:32;;;;;;;10.10;1.70;;;5.30;99.90;;;4.45;100.00;100608.94;4159377;28;20033;-85
2023/12/05 04:28:33;;;;;;;10.48;1.83;;;5.30;99.90;;;4.34;100.00;100615.00;4185554;28;20096;-83
2023/12/05 04:30:34;;;;;;;9.60;1.95;;;5.30;99.90;;;4.41;100.00;100615.38;4171298;28;20018;-83
2023/12/05 04:32:34;;;;;;;5.97;1.05;;;5.30;99.90;;;4.37;100.00;100614.75;4153743;28;20030;-84
2023/12/05 04:34:35;;;;;;;5.40;1.60;;;5.20;99.90;;;4.33;100.00;100623.78;4153710;28;20026;-84
2023/12/05 04:36:36;;;;;;;7.13;1.38;;;5.20;99.90;;;4.29;100.00;100624.97;4153649;28;20029;-84
2023/12/05 04:38:38;;;;;;;9.85;2.55;;;5.20;99.90;;;4.24;100.00;100627.09;4152215;28;20030;-84
2023/12/05 04:40:39;;;;;;;6.88;1.95;;;5.20;99.90;;;4.29;100.00;100643.25;4152245;28;20036;-86
2023/12/05 04:42:40;;;;;;;6.28;1.55;;;5.10;99.90;;;4.28;100.00;100636.38;4154506;28;20030;-84
2023/12/05 04:44:41;;;;;;;11.13;1.60;;;5.10;99.90;;;4.27;100.00;100637.31;4153522;28;20033;-84
2023/12/05 04:46:42;;;;;;;7.80;1.42;;;5.10;99.90;;;4.31;100.00;100638.75;4152148;28;20030;-86
2023/12/05 04:48:43;;;;;;;12.93;1.70;;;5.20;99.90;;;4.41;100.00;100631.03;4152386;28;20024;-85
2023/12/05 04:50:44;;;;;;;7.72;1.40;;;5.20;99.90;;;4.27;100.00;100637.31;4152528;28;20030;-85
2023/12/05 04:52:45;;;;;;;6.55;1.45;;;5.20;99.90;;;4.29;100.00;100638.03;4153761;28;20371;-84
2023/12/05 04:54:46;;;;;;;8.20;2.08;;;5.10;99.90;;;4.22;100.00;100638.63;4153038;28;20041;-87
2023/12/05 04:56:46;;;;;;;6.57;1.70;;;5.10;99.90;;;4.23;100.00;100646.34;4152181;28;20040;-86
2023/12/05 04:58:48;;;;;;;6.13;1.27;;;5.10;99.90;;;4.19;100.00;100641.47;4153314;28;20029;-87
2023/12/05 05:00:49;;;;;;;9.80;2.30;;;5.10;99.90;;;4.27;100.00;100649.56;4151913;28;20033;-86
2023/12/05 05:02:50;;;;;;;11.23;1.38;;;5.10;99.90;;;4.28;100.00;100653.81;4153116;28;20034;-86
2023/12/05 05:04:50;;;;;;;10.50;1.70;;;5.10;99.90;;;4.26;100.00;100659.16;4168211;28;20095;-85
2023/12/05 05:06:51;;;;;;;5.68;2.10;;;5.10;99.90;;;4.24;100.00;100655.81;4153278;28;20028;-85
2023/12/05 05:08:52;;;;;;;4.82;1.55;;;5.10;99.90;;;4.21;100.00;100655.25;4167580;28;20017;-88
2023/12/05 05:10:53;;;;;;;14.43;1.73;;;5.10;99.90;;;4.26;100.00;100655.72;4151878;28;20029;-85
2023/12/05 05:12:54;;;;;;;3.35;1.65;;;5.10;99.90;;;4.22;100.00;100668.16;4151773;28;20085;-86
2023/12/05 05:14:54;;;;;;;11.60;1.60;;;5.10;99.90;;;4.31;100.00;100664.84;4153150;28;20036;-87
2023/12/05 05:16:55;;;;;;;8.77;1.98;;;5.10;99.90;;;4.27;100.00;100676.47;4184395;28;20056;-86
2023/12/05 05:18:56;;;;;;;5.93;1.83;;;5.10;99.90;;;4.22;100.00;100670.78;4153093;28;20026;-86
2023/12/05 05:20:57;;;;;;;12.10;1.98;;;5.10;99.90;;;4.27;100.00;100681.69;4151651;28;20034;-86
2023/12/05 05:22:58;;;;;;;8.68;1.60;;;5.10;99.90;;;4.31;100.00;100669.22;4153001;28;20381;-85
2023/12/05 05:24:59;;;;;;;12.02;1.90;;;5.10;99.90;;;4.30;100.00;100673.63;4170010;28;20052;-87
2023/12/05 05:26:59;;;;;;;5.90;1.52;;;5.10;99.90;;;4.31;100.00;100693.56;4156645;28;20030;-86
2023/12/05 05:29:00;;;;;;;8.40;1.40;;;5.10;99.90;;;4.28;100.00;100690.34;4152771;28;20025;-85
2023/12/05 05:31:01;;;;;;;5.00;1.40;;;5.10;99.90;;;4.26;100.00;100687.88;4152856;28;20033;-85
2023/12/05 05:33:02;;;;;;;7.30;1.58;;;5.10;99.90;;;4.21;100.00;100691.78;4151725;28;20034;-86
2023/12/05 05:35:04;;;;;;;7.82;1.02;;;5.10;99.90;;;4.24;100.00;100691.56;4152804;28;20026;-84
2023/12/05 05:37:05;;;;;;;6.47;2.20;;;5.10;99.90;;;4.28;100.00;100701.63;4152554;28;20049;-86
2023/12/05 05:39:07;;;;;;;5.20;1.55;;;5.10;99.90;;;4.27;100.00;100704.38;4151722;28;20026;-85
2023/12/05 05:41:10;;;;;;;9.55;2.08;;;5.10;99.90;;;4.31;100.00;100703.19;4152594;28;20036;-85
2023/12/05 05:43:10;;;;;;;4.47;1.80;;;5.10;99.90;;;4.23;100.00;100710.78;4167831;28;20053;-85
2023/12/05 05:45:12;;;;;;;6.70;1.58;;;5.10;99.90;;;4.14;100.00;100701.88;4167598;28;20029;-85
2023/12/05 05:47:13;;;;;;;7.45;1.58;;;5.10;99.90;;;4.27;100.00;100710.41;4184552;28;20025;-85
2023/12/05 05:49:14;;;;;;;4.82;1.38;;;5.10;99.90;;;4.22;100.00;100702.09;4152620;28;20030;-86
2023/12/05 05:51:15;;;;;;;10.48;1.60;;;5.10;99.90;;;4.28;100.00;100719.91;4151344;28;20025;-86
2023/12/05 05:53:16;;;;;;;7.75;2.47;;;5.10;99.90;;;4.28;100.00;100714.69;4152835;28;20018;-86
2023/12/05 05:55:18;;;;;;;8.57;2.13;;;5.10;99.90;;;4.22;100.00;100714.31;4152388;28;20016;-84
2023/12/05 05:57:19;;;;;;;11.23;1.70;;;5.10;99.90;;;4.23;100.00;100722.06;4151411;28;20033;-85
2023/12/05 05:59:20;;;;;;;8.27;2.08;;;5.10;99.90;;;4.31;100.00;100719.69;4184095;28;20032;-84
2023/12/05 06:01:21;;;;;;;5.65;2.20;;;5.10;99.90;;;4.14;100.00;100709.69;4154601;28;20033;-85
2023/12/05 06:03:23;;;;;;;8.15;1.42;;;5.10;99.90;;;4.28;100.00;100719.91;4151283;28;20021;-86
2023/12/05 06:05:24;;;;;;;4.97;1.17;;;5.10;99.90;;;4.24;100.00;100726.31;4152485;28;20030;-85
2023/12/05 06:07:25;;;;;;;9.10;2.15;;;5.10;99.90;;;4.23;100.00;100729.03;4151404;28;20030;-84
2023/12/05 06:09:26;;;;;;;10.90;1.83;;;5.10;99.90;;;4.12;100.00;100723.81;4152301;28;20036;-85
2023/12/05 06:11:27;;;;;;;7.00;1.75;;;5.00;99.90;;;4.17;100.00;100738.19;4151114;28;20014;-84
2023/12/05 06:13:28;;;;;;;10.20;1.67;;;5.00;99.90;;;4.23;100.00;100732.50;4152417;28;20025;-86
2023/12/05 06:15:29;;;;;;;7.68;1.50;;;5.00;99.90;;;4.17;100.00;100734.72;4152228;28;20042;-85
2023/12/05 06:17:30;;;;;;;6.35;1.60;;;5.00;99.90;;;4.14;100.00;100743.63;4152087;28;20397;-86
2023/12/05 06:19:31;;;;;;;8.60;2.03;;;5.00;99.90;;;4.13;100.00;100741.97;4152397;28;20033;-85
2023/12/05 06:21:31;;;;;;;8.98;1.48;;;5.00;99.90;;;4.08;100.00;100738.88;4152238;28;20026;-86
2023/12/05 06:23:32;;;;;;;12.68;2.42;;;5.00;99.90;;;4.09;100.00;100744.91;4151105;28;20026;-86
2023/12/05 06:25:33;;;;;;;8.88;2.05;;;5.00;99.90;;;4.11;100.00;100749.06;4151965;28;20036;-85
2023/12/05 06:27:34;;;;;;;9.27;2.05;;;5.00;99.90;;;4.16;100.00;100743.50;4151108;28;20026;-85
2023/12/05 06:29:35;;;;;;;3.47;1.10;;;5.00;99.90;;;4.08;100.00;100740.63;4167316;28;20032;-87
2023/12/05 06:31:35;;;;;;;4.97;2.17;;;5.00;99.90;;;4.14;100.00;100748.84;4151088;28;20437;-87
2023/12/05 06:33:36;;;;;;;9.90;2.03;;;5.00;99.90;;;4.15;100.00;100747.88;4154025;28;20565;-86
2023/12/05 06:35:37;;;;;;;9.40;2.42;;;5.00;99.90;;;4.31;100.00;100761.47;4151488;28;20045;-85
2023/12/05 06:37:38;;;;;;;12.07;1.65;;;5.00;99.90;;;4.15;100.00;100760.13;4183906;28;20036;-85
2023/12/05 06:39:39;;;;;;;4.07;1.67;;;5.10;99.90;;;4.18;100.00;100763.31;4151992;28;20029;-86
2023/12/05 06:41:39;;;;;;;10.38;3.17;;;5.00;99.90;;;4.15;100.00;100765.34;4147150;28;20040;-86
2023/12/05 06:43:40;;;;;;;6.32;1.50;;;5.00;99.90;;;4.13;100.00;100768.06;4146015;28;20025;-87
2023/12/05 06:45:41;;;;;;;6.93;2.03;;;5.00;99.90;;;4.08;100.00;100764.97;4151011;28;20064;-87
2023/12/05 06:47:42;;;;;;;8.65;2.38;;;5.00;99.90;;;4.00;100.00;100769.94;4134646;28;20111;-86
2023/12/05 06:49:43;;;;;;;9.07;1.35;;;4.90;99.90;;;4.03;100.00;100781.91;4134528;28;20078;-84
2023/12/05 06:51:44;;;;;;;10.52;1.42;;;4.90;99.90;;;3.94;100.00;100773.00;4152304;28;20100;-87
2023/12/05 06:53:48;;;;;;;12.30;1.70;;;4.90;99.90;;;4.00;100.00;100788.19;4152108;28;20073;-85
2023/12/05 06:55:49;;;;;;;11.80;1.88;;;4.80;99.90;;;4.05;100.00;100786.06;4151850;28;20026;-84
2023/12/05 06:57:49;;;;;;;8.80;2.38;;;4.90;99.90;;;3.97;100.00;100791.03;4150717;28;20034;-87
2023/12/05 06:59:50;;;;;;;7.13;1.50;;;4.90;99.90;;;4.00;100.00;100788.19;4152077;28;20033;-87
2023/12/05 07:01:51;;;;;;;10.68;2.00;;;4.90;99.90;;;4.03;100.00;100795.81;4167029;28;20030;-85
2023/12/05 07:03:52;;;;;;;7.53;1.73;;;4.90;99.90;;;3.90;100.00;100792.41;4151865;28;20024;-84
2023/12/05 07:05:53;;;;;;;6.85;1.38;;;4.90;99.90;;;3.92;100.00;100790.53;4167029;28;20032;-86
2023/12/05 07:07:54;;;;;;;9.15;1.65;;;4.80;99.90;;;3.93;100.00;100802.63;4151875;28;20072;-81
2023/12/05 07:09:55;;;;;;;7.78;1.48;;;4.80;99.90;;;3.92;100.00;100811.41;4155526;28;20105;-86
2023/12/05 07:11:56;;;;;;;11.75;1.85;;;4.80;99.90;;;3.92;100.00;100808.78;4151894;28;20379;-86
2023/12/05 07:13:57;;;;;;;6.65;1.95;;;4.80;99.90;;;3.85;100.00;100812.81;4156193;28;20123;-86
2023/12/05 07:15:58;;;;;;;7.32;1.40;;;4.80;99.90;;;3.82;100.00;100807.81;4155562;28;20054;-86
2023/12/05 07:17:59;;;;;;;5.75;2.08;;;4.70;99.90;;;3.80;100.00;100813.13;4186684;28;20573;-88
2023/12/05 07:20:00;;;;;;;12.07;2.35;;;4.70;99.90;;;3.74;100.00;100810.97;4154921;28;20032;-85
2023/12/05 07:22:00;;;;;;;6.63;3.55;;;4.70;99.90;;;3.73;100.00;100817.09;4153572;28;20034;-85
2023/12/05 07:24:01;;;;;;;11.82;2.75;;;4.60;99.90;;;3.70;100.00;100822.53;4159889;28;20021;-87
2023/12/05 07:26:02;;;;;;;9.95;2.42;;;4.60;99.90;;;3.65;100.00;100816.00;4154617;28;20037;-86
2023/12/05 07:28:03;;;;;;;9.05;3.10;;;4.60;99.90;;;3.59;100.00;100813.81;4159261;28;20389;-85
2023/12/05 07:30:05;;;;;;;12.40;4.07;;;4.50;99.90;;;3.60;100.00;100815.50;4153518;28;20029;-87
2023/12/05 07:32:06;;;;;;;10.90;3.00;;;4.50;99.90;;;3.66;100.00;100822.88;4169571;28;20027;-85
2023/12/05 07:34:07;;;;;;;9.90;1.77;;;4.50;99.90;;;3.66;100.00;100831.56;4157272;28;20042;-85
2023/12/05 07:36:09;;;;;;;6.80;1.52;;;4.60;99.90;;;3.74;100.00;100817.94;4154676;28;20036;-84
2023/12/05 07:38:10;;;;;;;6.93;1.98;;;4.60;99.90;;;3.74;100.00;100833.59;4154571;28;20476;-85
2023/12/05 07:40:11;;;;;;;7.88;2.72;;;4.60;99.90;;;3.75;100.00;100841.34;4153115;28;20037;-86
2023/12/05 07:42:12;;;;;;;8.40;2.03;;;4.60;99.90;;;3.74;100.00;100844.03;4154449;28;20041;-85
2023/12/05 07:44:13;;;;;;;4.88;1.98;;;4.60;99.90;;;3.81;100.00;100853.94;4153576;28;20040;-84
2023/12/05 07:46:13;;;;;;;12.55;1.92;;;4.70;99.90;;;3.81;100.00;100850.50;4154467;28;20399;-85
2023/12/05 07:48:15;;;;;;;6.68;1.50;;;4.70;99.90;;;3.78;100.00;100854.16;4154362;28;20026;-85
2023/12/05 07:50:16;;;;;;;7.72;1.52;;;4.70;99.90;;;3.71;100.00;100849.47;4154398;28;20030;-87
2023/12/05 07:52:18;;;;;;;11.50;1.40;;;4.60;99.90;;;3.71;100.00;100857.28;4153529;28;20025;-85
2023/12/05 07:54:19;;;;;;;7.30;1.92;;;4.60;99.90;;;3.69;100.00;100867.03;4153240;28;20477;-83
2023/12/05 07:56:20;;;;;;;7.05;2.08;;;4.60;99.90;;;3.70;100.00;100853.03;4156469;28;20026;-86
2023/12/05 07:58:20;;;;;;;7.85;1.67;;;4.60;99.90;;;3.82;100.00;100867.81;4153242;28;20120;-85
2023/12/05 08:00:21;;;;;;;10.52;2.00;;;4.70;99.90;;;3.83;100.00;100861.63;4154297;28;20036;-86
2023/12/05 08:02:22;;;;;;;5.90;1.80;;;4.70;99.90;;;3.97;100.00;100868.50;4153015;28;20030;-84
2023/12/05 08:04:23;;;;;;;10.10;1.83;;;4.80;99.90;;;4.04;100.00;100870.53;4152911;28;20052;-84
2023/12/05 08:06:24;;;;;;;6.63;1.80;;;4.90;99.90;;;4.09;100.00;100878.03;4154117;28;20018;-87
2023/12/05 08:08:27;;;;;;;6.10;2.13;;;4.90;99.90;;;4.12;100.00;100883.84;4153150;28;20081;-85
2023/12/05 08:10:28;;;;;;;8.38;1.73;;;4.90;99.90;;;4.09;100.00;100897.13;4153890;28;20022;-87
2023/12/05 08:12:28;;;;;;;8.25;1.88;;;5.00;99.90;;;4.16;100.00;100887.06;4153984;28;20034;-85
2023/12/05 08:14:29;;;;;;;6.80;1.70;;;5.00;99.90;;;4.26;100.00;100888.94;4154382;28;20377;-86
2023/12/05 08:16:30;;;;;;;5.32;1.80;;;5.10;99.90;;;4.45;100.00;100891.84;4153683;28;20525;-85
2023/12/05 08:18:31;;;;;;;6.43;2.00;;;5.20;99.90;;;4.62;100.00;100889.75;4185750;28;20531;-88
2023/12/05 08:20:32;;;;;;;6.47;2.00;;;5.40;99.90;;;4.80;100.00;100891.00;4152750;28;20022;-85
2023/12/05 08:22:33;;;;;;;6.40;1.50;;;5.50;99.90;;;4.93;100.00;100897.78;4185261;28;20510;-85
2023/12/05 08:24:34;;;;;;;7.25;2.55;;;5.70;99.90;;;5.05;100.00;100896.00;4155902;28;20030;-86
2023/12/05 08:26:34;;;;;;;9.75;2.45;;;5.80;99.90;;;5.19;100.00;100901.03;4160621;28;20033;-84
2023/12/05 08:28:37;;;;;;;8.40;2.10;;;6.00;99.90;;;5.31;100.00;100909.72;4153757;28;20033;-85
2023/12/05 08:30:38;;;;;;;15.20;1.80;;;6.00;99.90;;;5.38;100.00;100909.13;4153605;28;20052;-85